Portada
Imágenes satélite Pronóstico 10 díasClimaPredicción Marítima Ciclones Rayo AeropuertosFAQ Noticias Acerca
El tiempo : Europa África América del Norte América del Sur Asia Australia-Oceanía Otros
Idiomas Contacto

Chichén Itzá, México

Aeropuerto Internacional de Kaua

latitud: 20-38-30N, longitud: 088-26-58W, altitud: 31 m


METAR: MMCT 312148Z 12008KT 8SM SCT020 34/09 A2996 RMK 8/100 MSGTX MMMD
TAF: falta

Hora: 04:35 (10:35 UTC)

Observación

El informe se hizo hace 12 horas y 47 minutos, a las 21:48 UTC
Viento 8 kt del este-sureste
Temperatura 34°C
Humedad 22%
Presión 1015 hPa
Visibilidad: 12.9 km
Nubes dispersas a una altura de 2000 ft

Cambiar las unidades
La información que se ofrece en estas páginas está sujeta a una cláusula de exención de responsabilidad
El tiempo : Europa África América del Norte América del Sur Asia Australia-Oceanía Otros
Imágenes satélite Pronóstico 10 díasClimaPredicción Marítima Ciclones Rayo AeropuertosFAQ Idiomas Contacto Noticias Acerca